createdAt,value
2018-06-02T00:00:32.015Z,67.00
2018-06-02T00:03:00.768Z,67.10
2018-06-02T00:05:29.625Z,66.70
2018-06-02T00:07:58.523Z,67.20
2018-06-02T00:10:27.604Z,66.70
2018-06-02T00:12:56.392Z,66.90
2018-06-02T00:15:25.230Z,66.60
2018-06-02T00:17:54.084Z,66.70
2018-06-02T00:20:22.973Z,66.60
2018-06-02T00:22:53.065Z,67.10
2018-06-02T00:25:21.829Z,68.50
2018-06-02T00:27:50.674Z,67.40
2018-06-02T00:30:19.428Z,66.80
2018-06-02T00:38:39.006Z,66.50
2018-06-02T00:41:11.258Z,66.20
2018-06-02T00:43:45.208Z,66.30
2018-06-02T00:46:18.835Z,66.90
2018-06-02T00:48:55.422Z,67.40
2018-06-02T00:51:28.764Z,67.20
2018-06-02T00:54:03.827Z,67.00
2018-06-02T00:56:38.408Z,67.10
2018-06-02T00:59:11.780Z,67.40
2018-06-02T01:01:47.747Z,67.50
2018-06-02T01:04:19.560Z,67.20
2018-06-02T01:06:52.164Z,67.70
2018-06-02T01:09:27.465Z,67.70
2018-06-02T01:12:01.578Z,66.70
2018-06-02T01:14:36.044Z,66.70
2018-06-02T01:17:08.918Z,69.30
2018-06-02T01:19:47.044Z,69.70
2018-06-02T01:22:21.307Z,69.50
2018-06-02T01:24:53.700Z,69.40
2018-06-02T01:27:28.464Z,71.50
2018-06-02T01:30:05.343Z,69.40
2018-06-02T01:32:42.425Z,69.40
2018-06-02T01:35:15.494Z,69.10
2018-06-02T01:37:48.817Z,68.00
2018-06-02T01:40:22.120Z,67.90
2018-06-02T01:42:55.493Z,67.80
2018-06-02T01:45:33.283Z,67.50
2018-06-02T01:48:13.043Z,67.80
2018-06-02T01:50:47.010Z,67.70
2018-06-02T01:53:22.499Z,67.30
2018-06-02T01:55:57.328Z,67.70
2018-06-02T02:01:06.372Z,69.30
2018-06-02T02:03:40.111Z,70.50
2018-06-02T02:06:14.587Z,72.50
2018-06-02T02:08:47.286Z,71.90
2018-06-02T02:11:21.109Z,71.70
2018-06-02T02:13:55.051Z,70.70
2018-06-02T02:16:29.379Z,71.40
2018-06-02T02:19:01.366Z,71.10
2018-06-02T02:21:37.662Z,70.30
2018-06-02T02:24:11.206Z,69.60
2018-06-02T02:26:46.753Z,68.80
2018-06-02T02:29:21.054Z,68.90
2018-06-02T02:34:36.276Z,69.00
2018-06-02T02:37:08.603Z,68.40
2018-06-02T02:39:42.586Z,69.30
2018-06-02T02:42:19.459Z,69.60
2018-06-02T02:44:56.428Z,68.60
2018-06-02T02:47:34.181Z,68.70
2018-06-02T02:50:11.684Z,69.20
2018-06-02T02:52:49.603Z,69.80
2018-06-02T02:55:23.358Z,70.00
2018-06-02T02:57:58.389Z,69.60
2018-06-02T03:00:36.089Z,69.70
2018-06-02T03:03:10.016Z,69.60
2018-06-02T03:05:44.432Z,69.20
2018-06-02T03:08:23.546Z,68.80
2018-06-02T03:10:57.520Z,69.20
2018-06-02T03:13:34.245Z,69.40
2018-06-02T03:16:12.250Z,73.10
2018-06-02T03:18:51.144Z,73.60
2018-06-02T03:21:19.959Z,74.50
2018-06-02T03:23:48.812Z,73.10
2018-06-02T03:26:17.588Z,73.40
2018-06-02T03:28:47.173Z,72.50
2018-06-02T03:31:15.943Z,72.40
2018-06-02T03:33:44.755Z,71.70
2018-06-02T03:36:14.381Z,71.90
2018-06-02T03:38:43.946Z,71.90
2018-06-02T03:41:12.727Z,71.40
2018-06-02T03:43:41.534Z,70.60
2018-06-02T03:46:10.273Z,70.40
2018-06-02T03:48:39.809Z,71.30
2018-06-02T03:51:08.647Z,71.20
2018-06-02T03:53:37.475Z,70.40
2018-06-02T03:56:06.236Z,70.00
2018-06-02T03:58:34.992Z,71.30
2018-06-02T04:01:05.014Z,71.20
2018-06-02T04:03:33.836Z,70.30
2018-06-02T04:06:04.370Z,70.30
2018-06-02T04:08:33.883Z,68.90
2018-06-02T04:11:04.254Z,67.60
2018-06-02T04:13:33.023Z,67.50
2018-06-02T04:16:01.822Z,66.60
2018-06-02T04:18:30.595Z,66.00
2018-06-02T04:21:00.211Z,67.10
2018-06-02T04:23:29.028Z,67.10
2018-06-02T04:25:57.842Z,68.10
2018-06-02T04:28:26.618Z,68.40
2018-06-02T04:30:55.421Z,67.90
2018-06-02T04:33:24.188Z,68.80
2018-06-02T04:35:52.981Z,69.10
2018-06-02T04:38:21.882Z,69.00
2018-06-02T04:40:50.651Z,68.80
2018-06-02T04:43:20.158Z,69.00
2018-06-02T04:45:48.953Z,68.90
2018-06-02T04:48:17.763Z,67.60
2018-06-02T04:50:47.573Z,67.90
2018-06-02T04:53:16.381Z,67.70
2018-06-02T04:55:47.404Z,64.80
2018-06-02T05:00:50.997Z,64.70
2018-06-02T05:03:20.145Z,63.40
2018-06-02T05:05:49.763Z,65.20
2018-06-02T05:08:18.550Z,65.20
2018-06-02T05:10:48.596Z,66.60
2018-06-02T05:13:20.764Z,64.50
2018-06-02T05:15:49.519Z,65.30
2018-06-02T05:18:18.291Z,65.00
2018-06-02T05:20:47.815Z,63.40
2018-06-02T05:23:18.741Z,60.90
2018-06-02T05:25:48.183Z,60.80
2018-06-02T05:28:17.849Z,62.40
2018-06-02T05:30:46.674Z,63.90
2018-06-02T05:33:16.181Z,63.80
2018-06-02T05:35:44.974Z,63.80
2018-06-02T05:38:13.856Z,62.70
2018-06-02T05:40:43.138Z,62.90
2018-06-02T05:43:11.902Z,63.90
2018-06-02T05:45:40.641Z,62.90
2018-06-02T05:48:09.426Z,62.60
2018-06-02T05:50:38.917Z,61.60
2018-06-02T05:53:08.583Z,60.90
2018-06-02T05:55:37.397Z,60.80
2018-06-02T05:58:06.141Z,61.80
2018-06-02T06:00:34.889Z,60.90
2018-06-02T06:03:05.533Z,59.90
2018-06-02T06:05:34.645Z,59.80
2018-06-02T06:08:05.051Z,61.70
2018-06-02T06:10:33.972Z,59.00
2018-06-02T06:13:02.818Z,61.00
2018-06-02T06:15:33.465Z,59.30
2018-06-02T06:18:03.101Z,58.50
2018-06-02T06:20:32.998Z,58.30
2018-06-02T06:23:01.888Z,58.70
2018-06-02T06:25:31.296Z,58.80
2018-06-02T06:28:00.207Z,58.80
2018-06-02T06:30:29.536Z,58.40
2018-06-02T06:33:00.871Z,56.50
2018-06-02T06:35:30.069Z,55.90
2018-06-02T06:37:58.907Z,57.40
2018-06-02T06:40:27.671Z,57.50
2018-06-02T06:42:56.636Z,57.30
2018-06-02T06:45:25.414Z,57.40
2018-06-02T06:47:54.260Z,57.20
2018-06-02T06:50:23.834Z,58.00
2018-06-02T06:52:52.714Z,57.90
2018-06-02T06:55:22.281Z,57.20
2018-06-02T06:57:51.178Z,57.10
2018-06-02T07:00:20.893Z,57.40
2018-06-02T07:02:50.533Z,57.10
2018-06-02T07:05:19.325Z,56.30
2018-06-02T07:07:48.176Z,55.80
2018-06-02T07:10:17.076Z,55.80
2018-06-02T07:12:46.712Z,55.10
2018-06-02T07:15:15.441Z,55.10
2018-06-02T07:17:44.222Z,56.70
2018-06-02T07:20:13.020Z,55.70
2018-06-02T07:22:41.912Z,55.70
2018-06-02T07:25:10.702Z,55.80
2018-06-02T07:27:39.551Z,56.30
2018-06-02T07:30:08.681Z,55.80
2018-06-02T07:32:37.441Z,56.30
2018-06-02T07:35:06.300Z,56.10
2018-06-02T07:37:35.858Z,57.00
2018-06-02T07:40:04.859Z,57.00
2018-06-02T07:42:33.630Z,56.40
2018-06-02T07:45:02.505Z,56.50
2018-06-02T07:47:31.261Z,56.00
2018-06-02T07:50:00.172Z,56.20
2018-06-02T07:52:28.938Z,56.20
2018-06-02T07:54:57.803Z,55.70
2018-06-02T07:57:26.597Z,55.90
2018-06-02T07:59:55.416Z,55.70
2018-06-02T08:02:24.274Z,55.70
2018-06-02T08:04:53.029Z,54.90
2018-06-02T08:07:21.843Z,55.40
2018-06-02T08:09:50.621Z,55.70
2018-06-02T08:12:20.603Z,55.40
2018-06-02T08:14:51.218Z,53.20
2018-06-02T08:17:20.535Z,53.10
2018-06-02T08:19:51.148Z,53.40
2018-06-02T08:22:20.829Z,53.40
2018-06-02T08:24:50.689Z,53.50
2018-06-02T08:27:19.494Z,53.80
2018-06-02T08:29:48.278Z,54.40
2018-06-02T08:32:17.198Z,53.50
2018-06-02T08:34:46.019Z,52.90
2018-06-02T08:37:14.875Z,53.20
2018-06-02T08:39:43.759Z,52.80
2018-06-02T08:42:12.547Z,51.00
2018-06-02T08:44:41.456Z,46.40
2018-06-02T08:47:10.473Z,48.00
2018-06-02T08:49:39.377Z,47.00
2018-06-02T08:52:08.315Z,47.30
2018-06-02T08:54:37.076Z,47.90
2018-06-02T08:57:05.954Z,50.20
2018-06-02T08:59:34.875Z,47.30
2018-06-02T09:02:03.618Z,46.10
2018-06-02T09:04:32.429Z,45.10
2018-06-02T09:07:01.193Z,46.20
2018-06-02T09:09:30.046Z,46.40
2018-06-02T09:11:58.781Z,45.80
2018-06-02T09:14:27.560Z,45.80
2018-06-02T09:16:56.457Z,47.30
2018-06-02T09:19:25.218Z,48.00
2018-06-02T09:21:54.014Z,46.80
2018-06-02T09:24:22.834Z,45.40
2018-06-02T09:26:52.666Z,46.20
2018-06-02T09:29:22.313Z,45.20
2018-06-02T09:31:52.886Z,44.60
2018-06-02T09:34:22.487Z,44.60
2018-06-02T09:36:51.238Z,46.70
2018-06-02T09:39:20.023Z,44.10
2018-06-02T09:41:48.815Z,46.10
2018-06-02T09:44:17.710Z,43.60
2018-06-02T09:46:47.681Z,47.20
2018-06-02T09:49:17.263Z,47.80
2018-06-02T09:51:46.093Z,47.80
2018-06-02T09:54:14.955Z,45.40
2018-06-02T09:56:44.571Z,46.10
2018-06-02T09:59:13.362Z,46.00
2018-06-02T10:01:42.152Z,42.50
2018-06-02T10:04:10.980Z,45.10
2018-06-02T10:06:39.749Z,44.70
2018-06-02T10:09:08.535Z,45.00
2018-06-02T10:11:37.369Z,44.10
2018-06-02T10:14:06.259Z,44.20
2018-06-02T10:16:35.042Z,43.40
2018-06-02T10:19:03.802Z,42.70
2018-06-02T10:21:32.573Z,43.30
2018-06-02T10:24:01.435Z,44.00
2018-06-02T10:26:30.230Z,43.50
2018-06-02T10:28:59.100Z,43.90
2018-06-02T10:31:28.800Z,44.70
2018-06-02T10:33:59.368Z,43.20
2018-06-02T10:36:28.150Z,42.70
2018-06-02T10:38:57.057Z,43.60
2018-06-02T10:41:25.865Z,42.50
2018-06-02T10:43:55.428Z,45.30
2018-06-02T10:46:24.226Z,45.30
2018-06-02T10:48:54.062Z,43.80
2018-06-02T10:51:22.889Z,45.10
2018-06-02T10:53:51.668Z,45.30
2018-06-02T10:56:21.238Z,45.40
2018-06-02T10:58:50.925Z,44.00
2018-06-02T11:01:19.840Z,43.90
2018-06-02T11:03:48.594Z,44.40
2018-06-02T11:06:17.382Z,44.80
2018-06-02T11:08:46.152Z,43.90
2018-06-02T11:11:14.935Z,43.70
2018-06-02T11:13:43.870Z,43.30
2018-06-02T11:16:13.059Z,41.30
2018-06-02T11:18:41.989Z,43.90
2018-06-02T11:21:11.624Z,41.20
2018-06-02T11:23:41.357Z,41.50
2018-06-02T11:26:10.248Z,41.40
2018-06-02T11:28:39.093Z,42.20
2018-06-02T11:31:07.936Z,41.30
2018-06-02T11:33:37.103Z,42.50
2018-06-02T11:36:06.004Z,43.10
2018-06-02T11:38:34.778Z,43.30
2018-06-02T11:41:04.377Z,43.00
2018-06-02T11:43:33.182Z,43.00
2018-06-02T11:46:02.008Z,44.10
2018-06-02T11:48:30.864Z,45.80
2018-06-02T11:50:59.739Z,44.60
2018-06-02T11:53:28.562Z,46.50
2018-06-02T11:55:57.316Z,47.60
2018-06-02T11:58:26.101Z,49.20
2018-06-02T12:00:55.760Z,49.50
2018-06-02T12:03:25.576Z,50.10
2018-06-02T12:05:58.238Z,50.30
2018-06-02T12:08:27.033Z,50.30
2018-06-02T12:10:55.878Z,50.10
2018-06-02T12:13:26.600Z,49.40
2018-06-02T12:15:55.889Z,49.30
2018-06-02T12:18:25.789Z,50.50
2018-06-02T12:20:54.594Z,49.30
2018-06-02T12:23:23.635Z,48.70
2018-06-02T12:25:53.228Z,49.80
2018-06-02T12:28:22.142Z,49.10
2018-06-02T12:30:50.913Z,49.50
2018-06-02T12:33:21.838Z,49.80
2018-06-02T12:35:50.632Z,49.90
2018-06-02T12:38:19.542Z,49.90
2018-06-02T12:40:48.350Z,48.80
2018-06-02T12:43:17.162Z,47.60
2018-06-02T12:45:46.009Z,47.90
2018-06-02T12:48:14.890Z,48.70
2018-06-02T12:50:43.722Z,48.90
2018-06-02T12:53:12.461Z,49.10
2018-06-02T12:55:41.355Z,47.30
2018-06-02T12:58:10.209Z,47.20
2018-06-02T13:00:38.991Z,46.70
2018-06-02T13:03:07.847Z,47.00
2018-06-02T13:05:36.645Z,45.00
2018-06-02T13:08:05.449Z,45.50
2018-06-02T13:10:34.258Z,47.00
2018-06-02T13:13:03.091Z,46.90
2018-06-02T13:15:31.978Z,46.70
2018-06-02T13:18:00.796Z,47.80
2018-06-02T13:20:30.029Z,48.50
2018-06-02T13:22:58.833Z,48.40
2018-06-02T13:25:27.932Z,48.20
2018-06-02T13:27:57.353Z,48.20
2018-06-02T13:30:27.201Z,47.50
2018-06-02T13:32:57.851Z,50.30
2018-06-02T13:35:27.432Z,50.30
2018-06-02T13:37:58.099Z,50.50
2018-06-02T13:40:27.667Z,50.80
2018-06-02T13:42:56.457Z,52.30
2018-06-02T13:45:25.369Z,53.10
2018-06-02T13:47:54.864Z,51.70
2018-06-02T13:50:24.464Z,52.30
2018-06-02T13:52:53.320Z,52.20
2018-06-02T13:55:22.121Z,52.30
2018-06-02T13:57:51.092Z,51.30
2018-06-02T14:00:19.854Z,52.20
2018-06-02T14:02:48.671Z,51.90
2018-06-02T14:05:18.036Z,51.60
2018-06-02T14:07:46.919Z,51.20
2018-06-02T14:10:15.731Z,50.80
2018-06-02T14:12:44.502Z,52.40
2018-06-02T14:15:14.278Z,52.30
2018-06-02T14:17:43.287Z,50.60
2018-06-02T14:20:12.129Z,50.40
2018-06-02T14:22:41.112Z,50.70
2018-06-02T14:25:09.902Z,50.50
2018-06-02T14:27:38.872Z,49.40
2018-06-02T14:30:08.606Z,49.70
2018-06-02T14:32:37.358Z,49.70
2018-06-02T14:35:06.126Z,49.10
2018-06-02T14:37:34.909Z,49.70
2018-06-02T14:40:03.820Z,49.50
2018-06-02T14:42:32.646Z,48.20
2018-06-02T14:45:02.385Z,47.60
2018-06-02T14:47:32.185Z,47.30
2018-06-02T14:50:00.981Z,47.30
2018-06-02T14:52:31.032Z,48.40
2018-06-02T14:55:00.278Z,48.30
2018-06-02T14:57:30.136Z,48.50
2018-06-02T14:59:58.985Z,49.00
2018-06-02T15:02:27.763Z,47.20
2018-06-02T15:04:57.329Z,47.00
2018-06-02T15:07:28.140Z,46.90
2018-06-02T15:09:56.929Z,46.80
2018-06-02T15:12:25.947Z,47.90
2018-06-02T15:14:54.804Z,48.00
2018-06-02T15:17:23.600Z,46.30
2018-06-02T15:19:52.374Z,47.40
2018-06-02T15:22:21.164Z,48.00
2018-06-02T15:24:50.274Z,47.70
2018-06-02T15:27:19.182Z,47.90
2018-06-02T15:29:48.004Z,48.00
2018-06-02T15:32:17.062Z,47.30
2018-06-02T15:34:45.944Z,47.80
2018-06-02T15:37:14.718Z,48.90
2018-06-02T15:39:43.491Z,48.90
2018-06-02T15:42:12.682Z,50.00
2018-06-02T15:44:42.213Z,50.20
2018-06-02T15:47:11.026Z,50.30
2018-06-02T15:49:39.856Z,50.60
2018-06-02T15:52:08.728Z,50.80
2018-06-02T15:54:37.615Z,51.20
2018-06-02T15:57:07.368Z,51.80
2018-06-02T15:59:36.395Z,51.70
2018-06-02T16:02:05.236Z,51.90
2018-06-02T16:04:34.129Z,52.40
2018-06-02T16:07:03.734Z,51.60
2018-06-02T16:12:08.848Z,50.90
2018-06-02T16:14:37.889Z,50.80
2018-06-02T16:17:06.659Z,49.00
2018-06-02T16:19:35.531Z,48.60
2018-06-02T16:22:05.229Z,47.50
2018-06-02T16:24:34.037Z,48.80
2018-06-02T16:27:02.959Z,48.40
2018-06-02T16:29:32.546Z,47.80
2018-06-02T16:32:01.543Z,47.70
2018-06-02T16:34:31.209Z,48.60
2018-06-02T16:37:01.070Z,48.50
2018-06-02T16:39:29.809Z,48.00
2018-06-02T16:41:58.606Z,49.00
2018-06-02T16:44:27.463Z,49.40
2018-06-02T16:46:56.472Z,49.10
2018-06-02T16:49:25.327Z,48.10
2018-06-02T16:51:54.113Z,49.70
2018-06-02T16:54:22.901Z,49.20
2018-06-02T16:56:51.763Z,49.80
2018-06-02T16:59:20.559Z,49.60
2018-06-02T17:04:29.438Z,50.40
2018-06-02T17:06:58.286Z,50.10
2018-06-02T17:09:27.112Z,50.50
2018-06-02T17:11:57.503Z,50.40
2018-06-02T17:14:26.313Z,50.30
2018-06-02T17:16:55.049Z,51.10
2018-06-02T17:19:23.889Z,50.70
2018-06-02T17:21:52.856Z,50.80
2018-06-02T17:24:23.323Z,50.20
2018-06-02T17:26:52.145Z,50.70
2018-06-02T17:29:21.115Z,49.60
2018-06-02T17:31:49.897Z,51.30
2018-06-02T17:34:18.921Z,50.80
2018-06-02T17:36:47.800Z,49.80
2018-06-02T17:39:16.574Z,49.70
2018-06-02T17:41:45.400Z,49.10
2018-06-02T17:44:15.038Z,49.70
2018-06-02T17:46:43.926Z,49.70
2018-06-02T17:49:13.018Z,50.60
2018-06-02T17:51:41.920Z,50.40
2018-06-02T17:54:11.246Z,50.40
2018-06-02T17:56:41.156Z,51.40
2018-06-02T17:59:10.141Z,51.70
2018-06-02T18:01:38.904Z,51.00
2018-06-02T18:04:08.686Z,51.70
2018-06-02T18:06:37.513Z,51.70
2018-06-02T18:09:06.453Z,51.70
2018-06-02T18:11:35.280Z,52.30
2018-06-02T18:14:04.402Z,52.30
2018-06-02T18:16:33.557Z,52.10
2018-06-02T18:19:02.383Z,52.10
2018-06-02T18:21:31.761Z,52.00
2018-06-02T18:24:00.920Z,53.50
2018-06-02T18:26:29.974Z,53.20
2018-06-02T18:28:59.738Z,55.40
2018-06-02T18:31:28.629Z,55.40
2018-06-02T18:33:57.443Z,55.40
2018-06-02T18:36:26.285Z,54.70
2018-06-02T18:38:55.125Z,54.10
2018-06-02T18:41:24.900Z,53.70
2018-06-02T18:43:53.715Z,54.50
2018-06-02T18:46:24.509Z,57.90
2018-06-02T18:48:53.907Z,57.80
2018-06-02T18:51:23.822Z,59.50
2018-06-02T18:53:52.654Z,60.30
2018-06-02T18:56:22.310Z,62.90
2018-06-02T18:58:51.057Z,62.80
2018-06-02T19:01:19.906Z,62.50
2018-06-02T19:03:48.878Z,63.80
2018-06-02T19:06:18.021Z,63.80
2018-06-02T19:08:46.977Z,65.00
2018-06-02T19:11:16.031Z,63.60
2018-06-02T19:13:45.328Z,63.20
2018-06-02T19:16:14.199Z,64.40
2018-06-02T19:18:43.047Z,64.50
2018-06-02T19:21:12.029Z,65.20
2018-06-02T19:23:40.970Z,64.10
2018-06-02T19:26:09.756Z,64.00
2018-06-02T19:28:38.780Z,64.70
2018-06-02T19:31:07.681Z,67.20
2018-06-02T19:33:36.581Z,67.50
2018-06-02T19:36:06.101Z,69.90
2018-06-02T19:38:35.923Z,70.20
2018-06-02T19:41:04.728Z,70.20
2018-06-02T19:43:35.049Z,67.70
2018-06-02T19:46:03.978Z,67.70
2018-06-02T19:48:35.556Z,68.30
2018-06-02T19:51:05.862Z,69.80
2018-06-02T19:53:34.958Z,69.70
2018-06-02T19:56:03.812Z,69.80
2018-06-02T19:58:38.396Z,68.20
2018-06-02T20:01:08.208Z,68.10
2018-06-02T20:03:37.969Z,69.60
2018-06-02T20:06:06.847Z,70.80
2018-06-02T20:08:36.301Z,72.60
2018-06-02T20:11:05.093Z,71.80
2018-06-02T20:13:33.865Z,69.10
2018-06-02T20:16:03.304Z,67.90
2018-06-02T20:18:32.092Z,68.00
2018-06-02T20:21:04.425Z,67.50
2018-06-02T20:23:33.261Z,67.60
2018-06-02T20:26:02.063Z,68.10
2018-06-02T20:28:31.590Z,70.50
2018-06-02T20:31:00.358Z,70.50
2018-06-02T20:33:29.203Z,69.30
2018-06-02T20:35:57.993Z,68.40
2018-06-02T20:38:26.890Z,68.00
2018-06-02T20:40:55.677Z,69.00
2018-06-02T20:43:24.537Z,69.50
2018-06-02T20:45:53.353Z,69.80
2018-06-02T20:48:22.147Z,71.20
2018-06-02T20:50:51.040Z,70.60
2018-06-02T20:53:20.021Z,69.80
2018-06-02T20:55:48.795Z,70.40
2018-06-02T20:58:18.282Z,70.50
2018-06-02T21:00:48.212Z,71.70
2018-06-02T21:03:16.972Z,71.80
2018-06-02T21:05:45.769Z,71.30
2018-06-02T21:08:14.535Z,71.20
2018-06-02T21:10:44.116Z,71.30
2018-06-02T21:13:12.933Z,71.30
2018-06-02T21:15:42.516Z,70.90
2018-06-02T21:18:11.255Z,70.90
2018-06-02T21:20:40.107Z,71.90
2018-06-02T21:23:08.868Z,71.70
2018-06-02T21:25:37.674Z,71.80
2018-06-02T21:28:06.823Z,71.40
2018-06-02T21:30:35.715Z,71.30
2018-06-02T21:33:05.215Z,71.10
2018-06-02T21:35:34.069Z,70.80
2018-06-02T21:38:05.370Z,70.50
2018-06-02T21:40:34.551Z,68.70
2018-06-02T21:43:03.381Z,68.40
2018-06-02T21:45:32.164Z,67.80
2018-06-02T21:48:01.598Z,71.30
2018-06-02T21:50:30.393Z,72.70
2018-06-02T21:52:59.166Z,71.60
2018-06-02T21:55:28.893Z,71.30
2018-06-02T21:57:57.660Z,70.20
2018-06-02T22:00:26.574Z,70.00
2018-06-02T22:02:55.346Z,73.80
2018-06-02T22:05:24.187Z,73.10
2018-06-02T22:07:53.019Z,72.70
2018-06-02T22:10:21.755Z,72.40
2018-06-02T22:12:50.513Z,71.70
2018-06-02T22:15:20.223Z,74.90
2018-06-02T22:17:49.141Z,74.70
2018-06-02T22:20:18.642Z,73.40
2018-06-02T22:22:47.472Z,73.10
2018-06-02T22:25:16.209Z,73.20
2018-06-02T22:27:45.722Z,78.50
2018-06-02T22:30:15.424Z,78.40
2018-06-02T22:32:44.953Z,77.40
2018-06-02T22:35:13.928Z,77.30
2018-06-02T22:37:42.760Z,75.50
2018-06-02T22:40:11.590Z,74.60
2018-06-02T22:42:40.627Z,74.20
2018-06-02T22:45:10.184Z,71.70
2018-06-02T22:47:39.030Z,71.60
2018-06-02T22:50:08.840Z,72.00
2018-06-02T22:52:37.667Z,70.80
2018-06-02T22:55:09.302Z,71.70
2018-06-02T22:57:38.919Z,71.20
2018-06-02T23:00:08.857Z,73.20
2018-06-02T23:02:37.403Z,74.80
2018-06-02T23:05:08.283Z,74.20
2018-06-02T23:07:36.747Z,74.20
2018-06-02T23:10:05.881Z,74.10
2018-06-02T23:12:34.415Z,75.00
2018-06-02T23:15:03.028Z,74.70
2018-06-02T23:17:31.590Z,74.70
2018-06-02T23:20:00.265Z,71.90
2018-06-02T23:22:38.639Z,71.90
2018-06-02T23:25:08.152Z,72.40
2018-06-02T23:27:36.742Z,71.70
2018-06-02T23:30:05.225Z,70.70
2018-06-02T23:32:33.744Z,70.80
2018-06-02T23:35:03.042Z,71.20
2018-06-02T23:37:31.986Z,70.40
2018-06-02T23:40:01.225Z,70.90
2018-06-02T23:42:29.747Z,70.90
2018-06-02T23:44:58.223Z,71.50
2018-06-02T23:47:26.763Z,72.40
2018-06-02T23:49:55.272Z,71.80
2018-06-02T23:52:25.873Z,72.00
2018-06-02T23:54:54.451Z,71.60
2018-06-02T23:57:23.037Z,71.50
2018-06-02T23:59:53.387Z,70.40
